sensor_id;sensor_type;location;lat;lon;timestamp;temperature;humidity
16485;DHT22;8353;47.856;12.344;2023-05-07T00:00:23;17.70;99.90
16485;DHT22;8353;47.856;12.344;2023-05-07T00:03:11;17.60;99.90
16485;DHT22;8353;47.856;12.344;2023-05-07T00:06:00;17.50;99.90
16485;DHT22;8353;47.856;12.344;2023-05-07T00:08:47;17.50;99.90
16485;DHT22;8353;47.856;12.344;2023-05-07T00:11:34;17.50;99.90
16485;DHT22;8353;47.856;12.344;2023-05-07T00:14:20;17.40;99.90
16485;DHT22;8353;47.856;12.344;2023-05-07T00:17:07;17.40;99.90
16485;DHT22;8353;47.856;12.344;2023-05-07T00:19:54;17.40;99.90
16485;DHT22;8353;47.856;12.344;2023-05-07T00:22:42;17.30;99.90
16485;DHT22;8353;47.856;12.344;2023-05-07T00:25:29;17.30;99.90
16485;DHT22;8353;47.856;12.344;2023-05-07T00:28:16;17.30;99.90
16485;DHT22;8353;47.856;12.344;2023-05-07T00:31:02;17.20;99.90
16485;DHT22;8353;47.856;12.344;2023-05-07T00:33:49;17.20;99.90
16485;DHT22;8353;47.856;12.344;2023-05-07T00:36:36;17.10;99.90
16485;DHT22;8353;47.856;12.344;2023-05-07T00:39:24;17.10;99.90
16485;DHT22;8353;47.856;12.344;2023-05-07T00:42:11;17.10;99.90
16485;DHT22;8353;47.856;12.344;2023-05-07T00:44:57;17.10;99.90
16485;DHT22;8353;47.856;12.344;2023-05-07T00:47:44;17.10;99.90
16485;DHT22;8353;47.856;12.344;2023-05-07T00:50:32;17.00;99.90
16485;DHT22;8353;47.856;12.344;2023-05-07T00:53:19;17.00;99.90
16485;DHT22;8353;47.856;12.344;2023-05-07T00:56:08;17.00;99.90
16485;DHT22;8353;47.856;12.344;2023-05-07T00:58:56;17.00;99.90
16485;DHT22;8353;47.856;12.344;2023-05-07T01:01:43;17.00;99.90
16485;DHT22;8353;47.856;12.344;2023-05-07T01:04:30;17.00;99.90
16485;DHT22;8353;47.856;12.344;2023-05-07T01:07:16;17.00;99.90
16485;DHT22;8353;47.856;12.344;2023-05-07T01:10:04;16.90;99.90
16485;DHT22;8353;47.856;12.344;2023-05-07T01:12:54;16.90;99.90
16485;DHT22;8353;47.856;12.344;2023-05-07T01:15:40;16.90;99.90
16485;DHT22;8353;47.856;12.344;2023-05-07T01:18:27;16.90;99.90
16485;DHT22;8353;47.856;12.344;2023-05-07T01:21:16;16.90;99.90
16485;DHT22;8353;47.856;12.344;2023-05-07T01:24:06;16.80;99.90
16485;DHT22;8353;47.856;12.344;2023-05-07T01:26:52;16.80;99.90
16485;DHT22;8353;47.856;12.344;2023-05-07T01:29:39;16.80;99.90
16485;DHT22;8353;47.856;12.344;2023-05-07T01:32:30;16.80;99.90
16485;DHT22;8353;47.856;12.344;2023-05-07T01:35:20;16.70;99.90
16485;DHT22;8353;47.856;12.344;2023-05-07T01:38:08;16.70;99.90
16485;DHT22;8353;47.856;12.344;2023-05-07T01:40:57;16.70;99.90
16485;DHT22;8353;47.856;12.344;2023-05-07T01:43:44;16.70;99.90
16485;DHT22;8353;47.856;12.344;2023-05-07T01:46:33;16.80;99.90
16485;DHT22;8353;47.856;12.344;2023-05-07T01:49:20;16.80;99.90
16485;DHT22;8353;47.856;12.344;2023-05-07T01:52:09;16.80;99.90
16485;DHT22;8353;47.856;12.344;2023-05-07T01:54:56;16.80;99.90
16485;DHT22;8353;47.856;12.344;2023-05-07T01:57:44;16.70;99.90
16485;DHT22;8353;47.856;12.344;2023-05-07T02:00:31;16.60;99.90
16485;DHT22;8353;47.856;12.344;2023-05-07T02:03:18;16.60;99.90
16485;DHT22;8353;47.856;12.344;2023-05-07T02:06:05;16.60;99.90
16485;DHT22;8353;47.856;12.344;2023-05-07T02:08:52;16.60;99.90
16485;DHT22;8353;47.856;12.344;2023-05-07T02:11:39;16.60;99.90
16485;DHT22;8353;47.856;12.344;2023-05-07T02:14:27;16.60;99.90
16485;DHT22;8353;47.856;12.344;2023-05-07T02:17:14;16.60;99.90
16485;DHT22;8353;47.856;12.344;2023-05-07T02:20:00;16.60;99.90
16485;DHT22;8353;47.856;12.344;2023-05-07T02:22:49;16.60;99.90
16485;DHT22;8353;47.856;12.344;2023-05-07T02:25:36;16.60;99.90
16485;DHT22;8353;47.856;12.344;2023-05-07T02:28:23;16.60;99.90
16485;DHT22;8353;47.856;12.344;2023-05-07T02:31:11;16.60;99.90
16485;DHT22;8353;47.856;12.344;2023-05-07T02:33:57;16.60;99.90
16485;DHT22;8353;47.856;12.344;2023-05-07T02:36:44;16.50;99.90
16485;DHT22;8353;47.856;12.344;2023-05-07T02:39:31;16.50;99.90
16485;DHT22;8353;47.856;12.344;2023-05-07T02:42:18;16.40;99.90
16485;DHT22;8353;47.856;12.344;2023-05-07T02:45:05;16.40;99.90
16485;DHT22;8353;47.856;12.344;2023-05-07T02:47:54;16.40;99.90
16485;DHT22;8353;47.856;12.344;2023-05-07T02:50:40;16.40;99.90
16485;DHT22;8353;47.856;12.344;2023-05-07T02:53:27;16.40;99.90
16485;DHT22;8353;47.856;12.344;2023-05-07T02:56:14;16.30;99.90
16485;DHT22;8353;47.856;12.344;2023-05-07T02:59:01;16.30;99.90
16485;DHT22;8353;47.856;12.344;2023-05-07T03:01:48;16.30;99.90
16485;DHT22;8353;47.856;12.344;2023-05-07T03:04:37;16.30;99.90
16485;DHT22;8353;47.856;12.344;2023-05-07T03:07:24;16.30;99.90
16485;DHT22;8353;47.856;12.344;2023-05-07T03:10:11;16.20;99.90
16485;DHT22;8353;47.856;12.344;2023-05-07T03:12:58;16.20;99.90
16485;DHT22;8353;47.856;12.344;2023-05-07T03:15:45;16.20;99.90
16485;DHT22;8353;47.856;12.344;2023-05-07T03:18:31;16.20;99.90
16485;DHT22;8353;47.856;12.344;2023-05-07T03:21:20;16.20;99.90
16485;DHT22;8353;47.856;12.344;2023-05-07T03:24:06;16.20;99.90
16485;DHT22;8353;47.856;12.344;2023-05-07T03:26:53;16.10;99.90
16485;DHT22;8353;47.856;12.344;2023-05-07T03:29:40;16.10;99.90
16485;DHT22;8353;47.856;12.344;2023-05-07T03:32:27;16.10;99.90
16485;DHT22;8353;47.856;12.344;2023-05-07T03:35:13;16.00;99.90
16485;DHT22;8353;47.856;12.344;2023-05-07T03:38:02;16.10;99.90
16485;DHT22;8353;47.856;12.344;2023-05-07T03:40:48;16.00;99.90
16485;DHT22;8353;47.856;12.344;2023-05-07T03:43:35;16.00;99.90
16485;DHT22;8353;47.856;12.344;2023-05-07T03:46:22;16.00;99.90
16485;DHT22;8353;47.856;12.344;2023-05-07T03:49:11;16.00;99.90
16485;DHT22;8353;47.856;12.344;2023-05-07T03:51:58;16.00;99.90
16485;DHT22;8353;47.856;12.344;2023-05-07T03:54:46;16.00;99.90
16485;DHT22;8353;47.856;12.344;2023-05-07T03:57:33;16.00;99.90
16485;DHT22;8353;47.856;12.344;2023-05-07T04:00:20;16.00;99.90
16485;DHT22;8353;47.856;12.344;2023-05-07T04:03:07;16.00;99.90
16485;DHT22;8353;47.856;12.344;2023-05-07T04:05:54;16.00;99.90
16485;DHT22;8353;47.856;12.344;2023-05-07T04:08:41;15.90;99.90
16485;DHT22;8353;47.856;12.344;2023-05-07T04:11:29;15.90;99.90
16485;DHT22;8353;47.856;12.344;2023-05-07T04:14:16;15.90;99.90
16485;DHT22;8353;47.856;12.344;2023-05-07T04:17:02;15.90;99.90
16485;DHT22;8353;47.856;12.344;2023-05-07T04:19:49;15.90;99.90
16485;DHT22;8353;47.856;12.344;2023-05-07T04:22:36;15.90;99.90
16485;DHT22;8353;47.856;12.344;2023-05-07T04:25:23;15.90;99.90
16485;DHT22;8353;47.856;12.344;2023-05-07T04:28:13;15.90;99.90
16485;DHT22;8353;47.856;12.344;2023-05-07T04:30:59;15.70;99.90
16485;DHT22;8353;47.856;12.344;2023-05-07T04:33:46;15.80;99.90
16485;DHT22;8353;47.856;12.344;2023-05-07T04:36:33;15.90;99.90
16485;DHT22;8353;47.856;12.344;2023-05-07T04:39:20;16.00;99.90
16485;DHT22;8353;47.856;12.344;2023-05-07T04:42:06;15.90;99.90
16485;DHT22;8353;47.856;12.344;2023-05-07T04:44:55;15.90;99.90
16485;DHT22;8353;47.856;12.344;2023-05-07T04:47:42;16.00;99.90
16485;DHT22;8353;47.856;12.344;2023-05-07T04:53:15;15.90;99.90
16485;DHT22;8353;47.856;12.344;2023-05-07T04:56:03;16.00;99.90
16485;DHT22;8353;47.856;12.344;2023-05-07T04:58:49;16.00;99.90
16485;DHT22;8353;47.856;12.344;2023-05-07T05:01:38;16.00;99.90
16485;DHT22;8353;47.856;12.344;2023-05-07T05:04:25;16.00;99.90
16485;DHT22;8353;47.856;12.344;2023-05-07T05:07:12;16.00;99.90
16485;DHT22;8353;47.856;12.344;2023-05-07T05:09:59;16.00;99.90
16485;DHT22;8353;47.856;12.344;2023-05-07T05:12:47;16.00;99.90
16485;DHT22;8353;47.856;12.344;2023-05-07T05:15:34;16.00;99.90
16485;DHT22;8353;47.856;12.344;2023-05-07T05:18:22;16.10;99.90
16485;DHT22;8353;47.856;12.344;2023-05-07T05:21:09;16.10;99.90
16485;DHT22;8353;47.856;12.344;2023-05-07T05:23:56;16.20;99.90
16485;DHT22;8353;47.856;12.344;2023-05-07T05:26:42;16.20;99.90
16485;DHT22;8353;47.856;12.344;2023-05-07T05:29:29;16.20;99.90
16485;DHT22;8353;47.856;12.344;2023-05-07T05:32:16;16.30;99.90
16485;DHT22;8353;47.856;12.344;2023-05-07T05:35:05;16.30;99.90
16485;DHT22;8353;47.856;12.344;2023-05-07T05:37:52;16.40;99.90
16485;DHT22;8353;47.856;12.344;2023-05-07T05:40:39;16.40;99.90
16485;DHT22;8353;47.856;12.344;2023-05-07T05:43:26;16.30;99.90
16485;DHT22;8353;47.856;12.344;2023-05-07T05:46:12;16.20;99.90
16485;DHT22;8353;47.856;12.344;2023-05-07T05:48:59;16.40;99.90
16485;DHT22;8353;47.856;12.344;2023-05-07T05:51:47;16.50;99.90
16485;DHT22;8353;47.856;12.344;2023-05-07T05:54:34;16.70;99.90
16485;DHT22;8353;47.856;12.344;2023-05-07T05:57:23;16.70;99.90
16485;DHT22;8353;47.856;12.344;2023-05-07T06:00:11;16.60;99.90
16485;DHT22;8353;47.856;12.344;2023-05-07T06:02:58;16.60;99.90
16485;DHT22;8353;47.856;12.344;2023-05-07T06:05:44;16.60;99.90
16485;DHT22;8353;47.856;12.344;2023-05-07T06:08:32;16.70;99.90
16485;DHT22;8353;47.856;12.344;2023-05-07T06:11:19;16.80;99.90
16485;DHT22;8353;47.856;12.344;2023-05-07T06:14:06;16.90;99.90
16485;DHT22;8353;47.856;12.344;2023-05-07T06:16:53;16.90;99.90
16485;DHT22;8353;47.856;12.344;2023-05-07T06:19:40;17.10;99.90
16485;DHT22;8353;47.856;12.344;2023-05-07T06:22:27;16.90;99.90
16485;DHT22;8353;47.856;12.344;2023-05-07T06:25:15;17.10;99.90
16485;DHT22;8353;47.856;12.344;2023-05-07T06:28:01;17.40;99.90
16485;DHT22;8353;47.856;12.344;2023-05-07T06:30:48;17.60;99.90
16485;DHT22;8353;47.856;12.344;2023-05-07T06:33:35;17.80;99.90
16485;DHT22;8353;47.856;12.344;2023-05-07T06:36:22;18.00;99.90
16485;DHT22;8353;47.856;12.344;2023-05-07T06:39:09;18.10;99.90
16485;DHT22;8353;47.856;12.344;2023-05-07T06:41:57;18.20;99.90
16485;DHT22;8353;47.856;12.344;2023-05-07T06:44:44;18.30;99.90
16485;DHT22;8353;47.856;12.344;2023-05-07T06:47:31;18.50;99.90
16485;DHT22;8353;47.856;12.344;2023-05-07T06:50:18;18.50;99.90
16485;DHT22;8353;47.856;12.344;2023-05-07T06:53:04;18.60;99.90
16485;DHT22;8353;47.856;12.344;2023-05-07T06:55:51;18.80;99.90
16485;DHT22;8353;47.856;12.344;2023-05-07T06:58:39;19.00;99.90
16485;DHT22;8353;47.856;12.344;2023-05-07T07:01:27;18.90;99.90
16485;DHT22;8353;47.856;12.344;2023-05-07T07:04:14;19.10;99.90
16485;DHT22;8353;47.856;12.344;2023-05-07T07:07:01;19.30;99.90
16485;DHT22;8353;47.856;12.344;2023-05-07T07:09:48;19.40;99.90
16485;DHT22;8353;47.856;12.344;2023-05-07T07:12:36;19.60;99.90
16485;DHT22;8353;47.856;12.344;2023-05-07T07:15:24;19.60;99.90
16485;DHT22;8353;47.856;12.344;2023-05-07T07:18:11;19.60;99.90
16485;DHT22;8353;47.856;12.344;2023-05-07T07:20:58;19.70;99.90
16485;DHT22;8353;47.856;12.344;2023-05-07T07:23:45;19.80;99.90
16485;DHT22;8353;47.856;12.344;2023-05-07T07:26:32;20.10;99.90
16485;DHT22;8353;47.856;12.344;2023-05-07T07:29:19;20.10;99.90
16485;DHT22;8353;47.856;12.344;2023-05-07T07:32:07;20.20;99.90
16485;DHT22;8353;47.856;12.344;2023-05-07T07:34:54;20.30;99.90
16485;DHT22;8353;47.856;12.344;2023-05-07T07:37:41;20.30;99.90
16485;DHT22;8353;47.856;12.344;2023-05-07T07:40:28;20.30;99.90
16485;DHT22;8353;47.856;12.344;2023-05-07T07:43:15;20.30;99.90
16485;DHT22;8353;47.856;12.344;2023-05-07T07:46:04;20.60;99.90
16485;DHT22;8353;47.856;12.344;2023-05-07T07:48:52;20.90;99.90
16485;DHT22;8353;47.856;12.344;2023-05-07T07:51:39;21.20;99.90
16485;DHT22;8353;47.856;12.344;2023-05-07T07:54:28;21.40;99.90
16485;DHT22;8353;47.856;12.344;2023-05-07T07:57:17;21.40;99.90
16485;DHT22;8353;47.856;12.344;2023-05-07T08:00:07;21.50;99.90
16485;DHT22;8353;47.856;12.344;2023-05-07T08:02:54;21.60;99.90
16485;DHT22;8353;47.856;12.344;2023-05-07T08:05:42;21.60;99.90
16485;DHT22;8353;47.856;12.344;2023-05-07T08:08:29;21.70;99.90
16485;DHT22;8353;47.856;12.344;2023-05-07T08:11:16;21.80;99.90
16485;DHT22;8353;47.856;12.344;2023-05-07T08:14:03;21.80;99.90
16485;DHT22;8353;47.856;12.344;2023-05-07T08:16:50;21.70;99.90
16485;DHT22;8353;47.856;12.344;2023-05-07T08:19:37;21.50;99.90
16485;DHT22;8353;47.856;12.344;2023-05-07T08:22:26;21.70;99.90
16485;DHT22;8353;47.856;12.344;2023-05-07T08:25:12;21.80;99.90
16485;DHT22;8353;47.856;12.344;2023-05-07T08:27:59;21.80;99.90
16485;DHT22;8353;47.856;12.344;2023-05-07T08:30:46;21.80;99.90
16485;DHT22;8353;47.856;12.344;2023-05-07T08:33:33;22.10;99.90
16485;DHT22;8353;47.856;12.344;2023-05-07T08:36:19;22.40;99.90
16485;DHT22;8353;47.856;12.344;2023-05-07T08:39:07;22.30;99.90
16485;DHT22;8353;47.856;12.344;2023-05-07T08:41:55;22.20;99.90
16485;DHT22;8353;47.856;12.344;2023-05-07T08:44:45;22.00;99.90
16485;DHT22;8353;47.856;12.344;2023-05-07T08:47:40;22.20;99.90
16485;DHT22;8353;47.856;12.344;2023-05-07T08:50:29;22.50;99.90
16485;DHT22;8353;47.856;12.344;2023-05-07T08:53:16;22.70;99.90
16485;DHT22;8353;47.856;12.344;2023-05-07T08:56:05;22.80;99.90
16485;DHT22;8353;47.856;12.344;2023-05-07T08:58:52;22.70;99.90
16485;DHT22;8353;47.856;12.344;2023-05-07T09:01:41;22.70;99.90
16485;DHT22;8353;47.856;12.344;2023-05-07T09:04:28;23.00;99.90
16485;DHT22;8353;47.856;12.344;2023-05-07T09:07:17;23.30;99.90
16485;DHT22;8353;47.856;12.344;2023-05-07T09:10:05;23.50;99.90
16485;DHT22;8353;47.856;12.344;2023-05-07T09:12:55;23.60;99.90
16485;DHT22;8353;47.856;12.344;2023-05-07T09:15:42;23.70;99.90
16485;DHT22;8353;47.856;12.344;2023-05-07T09:18:29;23.60;99.90
16485;DHT22;8353;47.856;12.344;2023-05-07T09:21:18;23.40;99.90
16485;DHT22;8353;47.856;12.344;2023-05-07T09:24:06;23.30;99.90
16485;DHT22;8353;47.856;12.344;2023-05-07T09:26:52;23.40;99.90
16485;DHT22;8353;47.856;12.344;2023-05-07T09:29:43;23.40;99.90
16485;DHT22;8353;47.856;12.344;2023-05-07T09:32:32;23.60;99.90
16485;DHT22;8353;47.856;12.344;2023-05-07T09:35:19;23.80;99.90
16485;DHT22;8353;47.856;12.344;2023-05-07T09:38:09;24.10;99.90
16485;DHT22;8353;47.856;12.344;2023-05-07T09:41:02;24.20;99.90
16485;DHT22;8353;47.856;12.344;2023-05-07T09:43:53;24.10;99.90
16485;DHT22;8353;47.856;12.344;2023-05-07T09:46:44;24.30;99.90
16485;DHT22;8353;47.856;12.344;2023-05-07T09:49:35;24.40;99.90
16485;DHT22;8353;47.856;12.344;2023-05-07T09:52:23;24.40;99.90
16485;DHT22;8353;47.856;12.344;2023-05-07T09:55:11;24.40;99.90
16485;DHT22;8353;47.856;12.344;2023-05-07T09:57:59;24.40;99.90
16485;DHT22;8353;47.856;12.344;2023-05-07T10:00:48;24.60;99.90
16485;DHT22;8353;47.856;12.344;2023-05-07T10:03:39;24.70;99.90
16485;DHT22;8353;47.856;12.344;2023-05-07T10:06:26;24.60;99.90
16485;DHT22;8353;47.856;12.344;2023-05-07T10:09:14;24.80;99.90
16485;DHT22;8353;47.856;12.344;2023-05-07T10:12:01;24.80;99.90
16485;DHT22;8353;47.856;12.344;2023-05-07T10:14:48;24.60;99.90
16485;DHT22;8353;47.856;12.344;2023-05-07T10:17:38;24.70;99.90
16485;DHT22;8353;47.856;12.344;2023-05-07T10:20:27;24.80;99.90
16485;DHT22;8353;47.856;12.344;2023-05-07T10:23:17;24.70;99.90
16485;DHT22;8353;47.856;12.344;2023-05-07T10:26:06;25.10;99.90
16485;DHT22;8353;47.856;12.344;2023-05-07T10:29:01;25.30;99.90
16485;DHT22;8353;47.856;12.344;2023-05-07T10:31:58;25.30;99.90
16485;DHT22;8353;47.856;12.344;2023-05-07T10:34:47;25.40;99.90
16485;DHT22;8353;47.856;12.344;2023-05-07T10:37:36;25.50;99.90
16485;DHT22;8353;47.856;12.344;2023-05-07T10:40:23;25.60;99.90
16485;DHT22;8353;47.856;12.344;2023-05-07T10:43:10;25.70;99.90
16485;DHT22;8353;47.856;12.344;2023-05-07T10:46:10;25.50;99.90
16485;DHT22;8353;47.856;12.344;2023-05-07T10:49:09;25.80;99.90
16485;DHT22;8353;47.856;12.344;2023-05-07T10:52:14;25.80;99.90
16485;DHT22;8353;47.856;12.344;2023-05-07T10:55:21;26.00;99.90
16485;DHT22;8353;47.856;12.344;2023-05-07T10:58:23;26.10;99.90
16485;DHT22;8353;47.856;12.344;2023-05-07T11:01:11;26.30;99.90
16485;DHT22;8353;47.856;12.344;2023-05-07T11:04:13;26.50;99.90
16485;DHT22;8353;47.856;12.344;2023-05-07T11:07:27;26.50;99.90
16485;DHT22;8353;47.856;12.344;2023-05-07T11:10:14;26.50;99.90
16485;DHT22;8353;47.856;12.344;2023-05-07T11:13:02;26.30;99.90
16485;DHT22;8353;47.856;12.344;2023-05-07T11:15:50;26.00;99.90
16485;DHT22;8353;47.856;12.344;2023-05-07T11:18:47;25.80;99.90
16485;DHT22;8353;47.856;12.344;2023-05-07T11:21:35;25.60;99.90
16485;DHT22;8353;47.856;12.344;2023-05-07T11:24:22;25.70;99.90
16485;DHT22;8353;47.856;12.344;2023-05-07T11:27:09;25.60;99.90
16485;DHT22;8353;47.856;12.344;2023-05-07T11:29:58;25.80;99.90
16485;DHT22;8353;47.856;12.344;2023-05-07T11:32:47;25.60;99.90
16485;DHT22;8353;47.856;12.344;2023-05-07T11:35:34;26.20;99.90
16485;DHT22;8353;47.856;12.344;2023-05-07T11:38:21;26.40;99.90
16485;DHT22;8353;47.856;12.344;2023-05-07T11:41:08;26.70;99.90
16485;DHT22;8353;47.856;12.344;2023-05-07T11:43:59;26.80;99.90
16485;DHT22;8353;47.856;12.344;2023-05-07T11:46:48;26.50;99.90
16485;DHT22;8353;47.856;12.344;2023-05-07T11:49:35;26.30;99.90
16485;DHT22;8353;47.856;12.344;2023-05-07T11:52:24;26.20;99.90
16485;DHT22;8353;47.856;12.344;2023-05-07T11:55:11;25.80;99.90
16485;DHT22;8353;47.856;12.344;2023-05-07T11:57:57;25.80;99.90
16485;DHT22;8353;47.856;12.344;2023-05-07T12:00:48;26.00;99.90
16485;DHT22;8353;47.856;12.344;2023-05-07T12:03:40;26.30;99.90
16485;DHT22;8353;47.856;12.344;2023-05-07T12:06:29;26.70;99.90
16485;DHT22;8353;47.856;12.344;2023-05-07T12:09:16;26.90;99.90
16485;DHT22;8353;47.856;12.344;2023-05-07T12:12:06;27.00;99.90
16485;DHT22;8353;47.856;12.344;2023-05-07T12:14:52;27.00;99.90
16485;DHT22;8353;47.856;12.344;2023-05-07T12:17:41;26.70;99.90
16485;DHT22;8353;47.856;12.344;2023-05-07T12:20:30;26.80;99.90
16485;DHT22;8353;47.856;12.344;2023-05-07T12:23:17;26.70;99.90
16485;DHT22;8353;47.856;12.344;2023-05-07T12:26:06;26.50;99.90
16485;DHT22;8353;47.856;12.344;2023-05-07T12:28:53;26.50;99.90
16485;DHT22;8353;47.856;12.344;2023-05-07T12:31:41;26.70;99.90
16485;DHT22;8353;47.856;12.344;2023-05-07T12:34:28;27.20;99.90
16485;DHT22;8353;47.856;12.344;2023-05-07T12:37:24;27.20;99.90
16485;DHT22;8353;47.856;12.344;2023-05-07T12:40:12;27.20;99.90
16485;DHT22;8353;47.856;12.344;2023-05-07T12:42:59;27.40;99.90
16485;DHT22;8353;47.856;12.344;2023-05-07T12:45:47;27.50;99.90
16485;DHT22;8353;47.856;12.344;2023-05-07T12:48:37;27.70;99.90
16485;DHT22;8353;47.856;12.344;2023-05-07T12:51:24;27.30;99.90
16485;DHT22;8353;47.856;12.344;2023-05-07T12:54:12;27.40;99.90
16485;DHT22;8353;47.856;12.344;2023-05-07T12:57:02;27.60;99.90
16485;DHT22;8353;47.856;12.344;2023-05-07T12:59:49;27.90;99.90
16485;DHT22;8353;47.856;12.344;2023-05-07T13:02:38;27.80;99.90
16485;DHT22;8353;47.856;12.344;2023-05-07T13:05:25;27.70;99.90
16485;DHT22;8353;47.856;12.344;2023-05-07T13:08:12;27.80;99.90
16485;DHT22;8353;47.856;12.344;2023-05-07T13:11:15;27.60;99.90
16485;DHT22;8353;47.856;12.344;2023-05-07T13:14:02;27.70;99.90
16485;DHT22;8353;47.856;12.344;2023-05-07T13:16:49;28.00;99.90
16485;DHT22;8353;47.856;12.344;2023-05-07T13:19:35;27.70;99.90
16485;DHT22;8353;47.856;12.344;2023-05-07T13:22:23;27.40;99.90
16485;DHT22;8353;47.856;12.344;2023-05-07T13:25:10;27.50;99.90
16485;DHT22;8353;47.856;12.344;2023-05-07T13:27:58;27.50;99.90
16485;DHT22;8353;47.856;12.344;2023-05-07T13:30:45;27.70;99.90
16485;DHT22;8353;47.856;12.344;2023-05-07T13:33:32;27.90;99.90
16485;DHT22;8353;47.856;12.344;2023-05-07T13:36:18;27.80;99.90
16485;DHT22;8353;47.856;12.344;2023-05-07T13:39:05;27.50;99.90
16485;DHT22;8353;47.856;12.344;2023-05-07T13:41:53;27.80;99.90
16485;DHT22;8353;47.856;12.344;2023-05-07T13:44:43;27.80;99.90
16485;DHT22;8353;47.856;12.344;2023-05-07T13:47:30;28.10;99.90
16485;DHT22;8353;47.856;12.344;2023-05-07T13:50:17;28.50;99.90
16485;DHT22;8353;47.856;12.344;2023-05-07T13:53:05;28.40;99.90
16485;DHT22;8353;47.856;12.344;2023-05-07T13:55:51;28.20;99.90
16485;DHT22;8353;47.856;12.344;2023-05-07T13:58:38;28.00;99.90
16485;DHT22;8353;47.856;12.344;2023-05-07T14:01:26;28.10;99.90
16485;DHT22;8353;47.856;12.344;2023-05-07T14:04:13;27.80;99.90
16485;DHT22;8353;47.856;12.344;2023-05-07T14:07:00;27.40;99.90
16485;DHT22;8353;47.856;12.344;2023-05-07T14:09:48;27.10;99.90
16485;DHT22;8353;47.856;12.344;2023-05-07T14:12:35;27.00;99.90
16485;DHT22;8353;47.856;12.344;2023-05-07T14:15:21;27.20;99.90
16485;DHT22;8353;47.856;12.344;2023-05-07T14:18:09;26.90;99.90
16485;DHT22;8353;47.856;12.344;2023-05-07T14:20:56;26.90;99.90
16485;DHT22;8353;47.856;12.344;2023-05-07T14:23:43;26.90;99.90
16485;DHT22;8353;47.856;12.344;2023-05-07T14:26:30;27.50;99.90
16485;DHT22;8353;47.856;12.344;2023-05-07T14:29:19;27.10;99.90
16485;DHT22;8353;47.856;12.344;2023-05-07T14:32:05;26.70;99.90
16485;DHT22;8353;47.856;12.344;2023-05-07T14:34:53;26.60;99.90
16485;DHT22;8353;47.856;12.344;2023-05-07T14:37:40;26.80;99.90
16485;DHT22;8353;47.856;12.344;2023-05-07T14:40:27;26.70;99.90
16485;DHT22;8353;47.856;12.344;2023-05-07T14:43:14;26.60;99.90
16485;DHT22;8353;47.856;12.344;2023-05-07T14:46:01;26.60;99.90
16485;DHT22;8353;47.856;12.344;2023-05-07T14:48:48;26.80;99.90
16485;DHT22;8353;47.856;12.344;2023-05-07T14:51:36;26.90;99.90
16485;DHT22;8353;47.856;12.344;2023-05-07T14:54:22;26.70;99.90
16485;DHT22;8353;47.856;12.344;2023-05-07T14:57:10;26.70;99.90
16485;DHT22;8353;47.856;12.344;2023-05-07T14:59:58;27.00;99.90
16485;DHT22;8353;47.856;12.344;2023-05-07T15:02:45;26.80;99.90
16485;DHT22;8353;47.856;12.344;2023-05-07T15:05:32;26.80;99.90
16485;DHT22;8353;47.856;12.344;2023-05-07T15:08:20;26.70;99.90
16485;DHT22;8353;47.856;12.344;2023-05-07T15:11:07;26.60;99.90
16485;DHT22;8353;47.856;12.344;2023-05-07T15:13:54;26.60;99.90
16485;DHT22;8353;47.856;12.344;2023-05-07T15:16:41;26.20;99.90
16485;DHT22;8353;47.856;12.344;2023-05-07T15:19:29;26.20;99.90
16485;DHT22;8353;47.856;12.344;2023-05-07T15:22:16;26.00;99.90
16485;DHT22;8353;47.856;12.344;2023-05-07T15:25:04;26.00;99.90
16485;DHT22;8353;47.856;12.344;2023-05-07T15:27:51;26.30;99.90
16485;DHT22;8353;47.856;12.344;2023-05-07T15:30:38;26.30;99.90
16485;DHT22;8353;47.856;12.344;2023-05-07T15:33:25;25.90;99.90
16485;DHT22;8353;47.856;12.344;2023-05-07T15:36:12;26.00;99.90
16485;DHT22;8353;47.856;12.344;2023-05-07T15:38:58;25.90;99.90
16485;DHT22;8353;47.856;12.344;2023-05-07T15:41:48;25.80;99.90
16485;DHT22;8353;47.856;12.344;2023-05-07T15:44:35;25.80;99.90
16485;DHT22;8353;47.856;12.344;2023-05-07T15:47:24;25.70;99.90
16485;DHT22;8353;47.856;12.344;2023-05-07T15:50:11;25.50;99.90
16485;DHT22;8353;47.856;12.344;2023-05-07T15:52:58;25.60;99.90
16485;DHT22;8353;47.856;12.344;2023-05-07T15:55:44;25.90;99.90
16485;DHT22;8353;47.856;12.344;2023-05-07T15:58:33;25.80;99.90
16485;DHT22;8353;47.856;12.344;2023-05-07T16:01:21;25.80;99.90
16485;DHT22;8353;47.856;12.344;2023-05-07T16:04:08;25.50;99.90
16485;DHT22;8353;47.856;12.344;2023-05-07T16:06:55;25.50;99.90
16485;DHT22;8353;47.856;12.344;2023-05-07T16:09:42;25.60;99.90
16485;DHT22;8353;47.856;12.344;2023-05-07T16:12:29;25.10;99.90
16485;DHT22;8353;47.856;12.344;2023-05-07T16:15:18;24.90;99.90
16485;DHT22;8353;47.856;12.344;2023-05-07T16:18:05;24.90;99.90
16485;DHT22;8353;47.856;12.344;2023-05-07T16:20:52;24.90;99.90
16485;DHT22;8353;47.856;12.344;2023-05-07T16:23:38;25.00;99.90
16485;DHT22;8353;47.856;12.344;2023-05-07T16:26:25;24.70;99.90
16485;DHT22;8353;47.856;12.344;2023-05-07T16:29:12;24.60;99.90
16485;DHT22;8353;47.856;12.344;2023-05-07T16:32:01;24.50;99.90
16485;DHT22;8353;47.856;12.344;2023-05-07T16:34:48;24.60;99.90
16485;DHT22;8353;47.856;12.344;2023-05-07T16:37:36;24.60;99.90
16485;DHT22;8353;47.856;12.344;2023-05-07T16:40:25;24.70;99.90
16485;DHT22;8353;47.856;12.344;2023-05-07T16:43:12;24.60;99.90
16485;DHT22;8353;47.856;12.344;2023-05-07T16:45:59;24.60;99.90
16485;DHT22;8353;47.856;12.344;2023-05-07T16:48:47;24.50;99.90
16485;DHT22;8353;47.856;12.344;2023-05-07T16:51:34;24.40;99.90
16485;DHT22;8353;47.856;12.344;2023-05-07T16:54:23;24.00;99.90
16485;DHT22;8353;47.856;12.344;2023-05-07T16:57:10;24.00;99.90
16485;DHT22;8353;47.856;12.344;2023-05-07T16:59:57;24.00;99.90
16485;DHT22;8353;47.856;12.344;2023-05-07T17:02:44;23.90;99.90
16485;DHT22;8353;47.856;12.344;2023-05-07T17:05:32;23.60;99.90
16485;DHT22;8353;47.856;12.344;2023-05-07T17:08:19;23.60;99.90
16485;DHT22;8353;47.856;12.344;2023-05-07T17:11:06;23.40;99.90
16485;DHT22;8353;47.856;12.344;2023-05-07T17:13:53;23.40;99.90
16485;DHT22;8353;47.856;12.344;2023-05-07T17:16:41;23.40;99.90
16485;DHT22;8353;47.856;12.344;2023-05-07T17:19:27;23.30;99.90
16485;DHT22;8353;47.856;12.344;2023-05-07T17:22:15;23.10;99.90
16485;DHT22;8353;47.856;12.344;2023-05-07T17:25:02;22.90;99.90
16485;DHT22;8353;47.856;12.344;2023-05-07T17:27:49;22.90;99.90
16485;DHT22;8353;47.856;12.344;2023-05-07T17:30:38;22.80;99.90
16485;DHT22;8353;47.856;12.344;2023-05-07T17:33:25;22.70;99.90
16485;DHT22;8353;47.856;12.344;2023-05-07T17:36:11;22.70;99.90
16485;DHT22;8353;47.856;12.344;2023-05-07T17:39:00;22.50;99.90
16485;DHT22;8353;47.856;12.344;2023-05-07T17:41:46;22.40;99.90